Time;durP1;ratioP1;P1;durP2;ratioP2;P2;SDS_P1;SDS_P2;PMS_P1;PMS_P2;Temp;Humidity;BMP_temperature;BMP_pressure;BME280_temperature;BME280_humidity;BME280_pressure;Samples;Min_cycle;Max_cycle;Signal;HPM_P1;HPM_P2
2023/10/09 00:01:09;;;;;;;870.58;783.80;;;28.50;99.90;;;;;;5052835;28;20031;-67
2023/10/09 00:03:37;;;;;;;1013.90;911.97;;;28.50;99.90;;;;;;5052814;28;20068;-69
2023/10/09 00:06:04;;;;;;;1002.10;902.60;;;28.60;99.90;;;;;;5053029;28;20429;-70
2023/10/09 00:08:31;;;;;;;1023.40;920.72;;;28.70;99.90;;;;;;5052926;28;20036;-65
2023/10/09 00:11:13;;;;;;;1003.47;903.70;;;28.70;99.90;;;;;;5052665;28;20499;-68
2023/10/09 00:13:52;;;;;;;950.72;855.78;;;28.70;99.90;;;;;;5051586;28;20380;-66
2023/10/09 00:16:23;;;;;;;919.10;829.15;;;28.80;99.90;;;;;;5045997;28;20029;-65
2023/10/09 00:18:51;;;;;;;929.28;836.60;;;28.90;99.90;;;;;;5039017;28;20014;-65
2023/10/09 00:21:20;;;;;;;949.13;855.83;;;28.90;99.90;;;;;;5033187;28;20381;-65
2023/10/09 00:23:59;;;;;;;903.08;814.22;;;28.90;99.90;;;;;;5045555;28;20354;-65
2023/10/09 00:26:26;;;;;;;925.17;833.40;;;28.90;99.90;;;;;;5049500;28;20059;-65
2023/10/09 00:28:53;;;;;;;924.05;831.22;;;28.80;99.90;;;;;;5045241;28;20159;-64
2023/10/09 00:31:33;;;;;;;935.10;841.92;;;28.90;99.90;;;;;;5047681;28;20151;-64
2023/10/09 00:34:01;;;;;;;922.88;829.80;;;28.80;99.90;;;;;;5036571;28;20021;-65
2023/10/09 00:36:29;;;;;;;881.53;793.50;;;28.90;99.90;;;;;;5036578;28;20037;-65
2023/10/09 00:38:59;;;;;;;960.05;864.53;;;29.00;99.90;;;;;;5036522;28;20488;-64
2023/10/09 00:41:26;;;;;;;953.03;858.85;;;29.00;99.90;;;;;;5036282;28;20229;-64
2023/10/09 00:43:52;;;;;;;928.72;836.20;;;29.10;99.90;;;;;;5036833;28;20036;-65
2023/10/09 00:49:01;;;;;;;964.92;869.05;;;29.20;99.90;;;;;;5036314;28;20124;-64
2023/10/09 00:51:34;;;;;;;876.00;788.22;;;29.20;99.90;;;;;;5036309;28;20392;-64
2023/10/09 00:54:26;;;;;;;969.60;872.97;;;29.30;99.90;;;;;;5036141;28;20022;-64
2023/10/09 00:57:06;;;;;;;921.90;831.25;;;29.30;99.90;;;;;;5036358;28;20026;-64
2023/10/09 00:59:36;;;;;;;1021.03;917.85;;;29.40;99.90;;;;;;5041934;28;20408;-64
2023/10/09 01:02:05;;;;;;;979.17;881.60;;;29.50;99.90;;;;;;5051279;28;20056;-64
2023/10/09 01:04:32;;;;;;;974.88;876.03;;;29.50;99.90;;;;;;5049816;28;20091;-65
2023/10/09 01:07:15;;;;;;;950.38;856.85;;;29.60;99.90;;;;;;5039292;28;20029;-64
2023/10/09 01:09:44;;;;;;;963.38;869.47;;;29.50;99.90;;;;;;5040637;28;20100;-64
2023/10/09 01:12:18;;;;;;;985.03;887.60;;;29.60;99.90;;;;;;5042320;28;20021;-65
2023/10/09 01:14:52;;;;;;;982.58;886.38;;;29.60;99.90;;;;;;5036020;28;20029;-64
2023/10/09 01:17:29;;;;;;;999.53;901.20;;;29.60;99.90;;;;;;5044536;28;20025;-64
2023/10/09 01:19:57;;;;;;;1013.83;913.22;;;29.70;99.90;;;;;;5056404;28;20031;-65
2023/10/09 01:22:24;;;;;;;881.65;795.63;;;29.60;99.90;;;;;;5055956;28;20116;-65
2023/10/09 01:29:35;;;;;;;968.92;869.70;;;29.70;99.90;;;;;;5091326;28;20444;-62
2023/10/09 01:32:02;;;;;;;911.95;821.25;;;29.70;99.90;;;;;;5091313;28;20427;-61
2023/10/09 01:34:41;;;;;;;925.47;832.50;;;29.70;99.90;;;;;;5091300;28;20374;-64
2023/10/09 01:37:18;;;;;;;913.08;822.13;;;29.80;99.90;;;;;;5090785;28;20046;-65
2023/10/09 01:39:47;;;;;;;1350.63;999.90;;;29.80;99.90;;;;;;5090746;28;20020;-66
2023/10/09 01:44:51;;;;;;;1321.15;999.90;;;30.10;99.90;;;;;;5090655;28;20028;-64
2023/10/09 01:47:18;;;;;;;1292.82;999.90;;;30.10;99.90;;;;;;5090453;28;20032;-64
2023/10/09 01:49:49;;;;;;;1297.25;999.90;;;30.20;99.90;;;;;;5090263;28;20033;-64
2023/10/09 01:52:16;;;;;;;1334.18;999.90;;;30.20;99.90;;;;;;5090405;28;20016;-64
2023/10/09 01:54:49;;;;;;;1308.50;999.90;;;30.30;99.90;;;;;;5090252;28;20025;-63
2023/10/09 01:57:22;;;;;;;1356.50;999.90;;;30.30;99.90;;;;;;5090319;28;20488;-63
2023/10/09 01:59:50;;;;;;;1345.53;999.90;;;30.40;99.90;;;;;;5090133;28;20157;-64
2023/10/09 02:02:27;;;;;;;1354.38;999.90;;;30.50;99.90;;;;;;5090162;28;20031;-65
2023/10/09 02:05:05;;;;;;;1343.43;999.90;;;30.60;99.90;;;;;;5090460;28;20103;-65
2023/10/09 02:07:40;;;;;;;1342.85;999.90;;;30.60;99.90;;;;;;5090008;28;20028;-64
2023/10/09 02:10:25;;;;;;;1334.15;999.90;;;30.60;99.90;;;;;;5090243;28;20431;-64
2023/10/09 02:13:16;;;;;;;1299.95;999.90;;;30.70;99.90;;;;;;5083228;28;20095;-64
2023/10/09 02:18:36;;;;;;;1311.53;999.90;;;30.90;99.90;;;;;;5067898;28;20033;-64
2023/10/09 02:26:10;;;;;;;1293.80;999.90;;;31.10;99.90;;;;;;5069625;28;20524;-66
2023/10/09 02:28:37;;;;;;;1318.07;999.90;;;31.20;99.90;;;;;;5069274;28;20052;-64
2023/10/09 02:31:13;;;;;;;1346.10;999.90;;;31.40;99.90;;;;;;5069428;28;20029;-65
2023/10/09 02:33:40;;;;;;;1287.13;999.90;;;31.50;99.90;;;;;;5069480;28;20078;-65
2023/10/09 02:36:07;;;;;;;1278.07;999.90;;;31.60;99.90;;;;;;5069389;28;20024;-65
2023/10/09 02:38:37;;;;;;;1309.13;999.90;;;31.60;99.90;;;;;;5068967;28;20025;-65
2023/10/09 02:43:40;;;;;;;1322.30;999.90;;;31.70;99.90;;;;;;5076175;28;20024;-64
2023/10/09 02:46:18;;;;;;;1352.88;999.90;;;31.80;99.90;;;;;;5076126;28;20032;-64
2023/10/09 02:48:51;;;;;;;1360.20;999.90;;;31.70;99.90;;;;;;5075869;28;20021;-65
2023/10/09 02:51:32;;;;;;;1328.28;999.90;;;31.70;99.90;;;;;;5075996;28;20100;-65
2023/10/09 02:54:17;;;;;;;1317.00;999.90;;;31.80;99.90;;;;;;5075894;28;20512;-65
2023/10/09 02:59:41;;;;;;;1298.78;999.90;;;31.90;99.90;;;;;;5073101;28;20057;-66
2023/10/09 03:02:08;;;;;;;1316.65;999.90;;;32.00;99.90;;;;;;5075487;28;20025;-65
2023/10/09 03:04:35;;;;;;;1321.53;999.90;;;32.00;99.90;;;;;;5075196;28;20151;-66
2023/10/09 03:07:03;;;;;;;1310.45;999.90;;;32.00;99.90;;;;;;5070297;28;20791;-65
2023/10/09 03:09:31;;;;;;;1303.93;999.90;;;32.00;99.90;;;;;;5062225;28;20021;-65
2023/10/09 03:12:03;;;;;;;1313.28;999.90;;;32.00;99.90;;;;;;5053281;28;20028;-66
2023/10/09 03:14:35;;;;;;;1305.17;999.90;;;32.00;99.90;;;;;;5059606;28;20021;-66
2023/10/09 03:17:02;;;;;;;1312.05;999.90;;;32.10;99.90;;;;;;5064634;28;20025;-66
2023/10/09 03:19:39;;;;;;;1316.30;999.90;;;32.00;99.90;;;;;;5062774;28;20083;-66
2023/10/09 03:22:11;;;;;;;1295.72;999.90;;;32.00;99.90;;;;;;5066161;28;20024;-65
2023/10/09 03:24:44;;;;;;;1272.10;999.90;;;32.00;99.90;;;;;;5065092;28;20515;-64
2023/10/09 03:27:13;;;;;;;1277.95;999.90;;;32.10;99.90;;;;;;5065522;28;20025;-66
2023/10/09 03:29:48;;;;;;;1275.35;999.90;;;32.20;99.90;;;;;;5062913;28;20023;-67
2023/10/09 03:32:15;;;;;;;1273.57;999.90;;;32.20;99.90;;;;;;5065715;28;20091;-65
2023/10/09 03:34:43;;;;;;;1270.30;999.90;;;32.40;99.90;;;;;;5064380;28;20410;-65
2023/10/09 03:37:21;;;;;;;1280.47;999.90;;;32.50;99.90;;;;;;5063362;28;20017;-66
2023/10/09 03:39:51;;;;;;;1246.25;999.90;;;32.60;99.90;;;;;;5072791;28;20139;-68
2023/10/09 03:42:19;;;;;;;1224.97;999.90;;;32.60;99.90;;;;;;5070156;28;20477;-67
2023/10/09 03:44:52;;;;;;;1268.97;999.90;;;32.70;99.90;;;;;;5058896;28;20033;-68
2023/10/09 03:47:29;;;;;;;1181.40;999.90;;;32.80;99.90;;;;;;5074745;28;20423;-67
2023/10/09 03:49:56;;;;;;;1202.38;999.90;;;32.80;99.90;;;;;;5074691;28;20069;-66
2023/10/09 03:52:25;;;;;;;1203.10;999.90;;;32.80;99.90;;;;;;5073614;28;20056;-66
2023/10/09 03:54:52;;;;;;;1148.95;999.90;;;32.90;99.90;;;;;;5074515;28;20051;-66
2023/10/09 03:57:19;;;;;;;1146.70;999.90;;;32.90;99.90;;;;;;5074369;28;20100;-65
2023/10/09 03:59:47;;;;;;;1160.32;999.90;;;33.00;99.90;;;;;;5074432;28;20028;-65
2023/10/09 04:02:17;;;;;;;1148.82;999.90;;;33.10;99.90;;;;;;5074100;28;20056;-68
2023/10/09 04:04:52;;;;;;;1221.15;999.90;;;33.10;99.90;;;;;;5074477;28;20103;-67
2023/10/09 04:07:19;;;;;;;1122.82;999.90;;;33.10;99.90;;;;;;5074216;28;20077;-68
2023/10/09 04:09:51;;;;;;;1141.28;999.90;;;33.20;99.90;;;;;;5074235;28;20024;-67
2023/10/09 04:12:30;;;;;;;1196.53;999.90;;;33.20;99.90;;;;;;5074590;28;20017;-66
2023/10/09 04:15:01;;;;;;;1312.75;999.90;;;33.30;99.90;;;;;;5074377;28;20020;-67
2023/10/09 04:22:50;;;;;;;1501.57;999.90;;;33.40;99.90;;;;;;5074000;28;20112;-67
2023/10/09 04:25:29;;;;;;;1369.05;999.90;;;33.30;99.90;;;;;;5073966;28;20478;-68
2023/10/09 04:28:08;;;;;;;1355.68;999.90;;;33.20;99.90;;;;;;5073269;28;20052;-66
2023/10/09 04:30:42;;;;;;;1359.40;999.90;;;33.20;99.90;;;;;;5071902;28;20103;-65
2023/10/09 04:36:35;;;;;;;1374.80;999.90;;;33.40;99.90;;;;;;5071166;28;20111;-66
2023/10/09 04:39:06;;;;;;;1358.88;999.90;;;33.50;99.90;;;;;;5072802;28;20063;-63
2023/10/09 04:41:51;;;;;;;1359.35;999.90;;;33.50;99.90;;;;;;5066198;28;20036;-62
2023/10/09 04:44:19;;;;;;;1365.72;999.90;;;33.60;99.90;;;;;;5052694;28;20108;-63
2023/10/09 04:49:34;;;;;;;1358.32;999.90;;;33.80;99.90;;;;;;5052870;28;20036;-61
2023/10/09 04:52:18;;;;;;;1363.63;999.90;;;33.80;99.90;;;;;;5052814;28;20036;-62
2023/10/09 04:57:38;;;;;;;1351.20;999.90;;;33.90;99.60;;;;;;5058595;28;20414;-64
2023/10/09 05:00:22;;;;;;;1361.07;999.90;;;33.90;99.80;;;;;;5061860;28;20020;-63
2023/10/09 05:03:03;;;;;;;1351.13;999.90;;;34.00;99.60;;;;;;5060905;28;20027;-63
2023/10/09 05:08:19;;;;;;;1350.93;999.90;;;34.00;98.50;;;;;;5061383;28;20116;-64
2023/10/09 05:16:29;;;;;;;1292.10;999.90;;;34.00;97.50;;;;;;5060721;28;20097;-63
2023/10/09 05:18:57;;;;;;;1312.63;999.90;;;34.20;97.40;;;;;;5061689;28;20358;-62
2023/10/09 05:26:51;;;;;;;1294.22;999.90;;;34.30;97.40;;;;;;5060022;28;20514;-62
2023/10/09 05:37:43;;;;;;;1364.03;999.90;;;34.40;94.70;;;;;;5059965;28;20512;-63
2023/10/09 05:42:57;;;;;;;1366.65;999.90;;;34.50;95.00;;;;;;5064337;28;20029;-62
2023/10/09 05:51:10;;;;;;;1365.10;999.90;;;34.70;93.80;;;;;;5067253;28;20021;-63
2023/10/09 06:04:53;;;;;;;1378.88;999.90;;;34.70;92.90;;;;;;5061002;28;20386;-63
2023/10/09 06:07:23;;;;;;;1378.80;999.90;;;34.70;93.30;;;;;;5061514;28;20029;-63
2023/10/09 06:09:52;;;;;;;1372.18;999.90;;;34.70;92.90;;;;;;5060469;28;20029;-64
2023/10/09 06:18:25;;;;;;;1347.78;999.90;;;34.80;92.10;;;;;;5067062;28;20121;-63
2023/10/09 06:23:50;;;;;;;1356.10;999.90;;;34.80;91.70;;;;;;5064210;28;20119;-64
2023/10/09 06:26:23;;;;;;;1363.50;999.90;;;34.80;92.50;;;;;;5052809;28;20037;-62
2023/10/09 06:29:14;;;;;;;1352.05;999.90;;;35.00;92.10;;;;;;5063195;28;20584;-62
2023/10/09 06:31:59;;;;;;;1387.75;999.90;;;35.10;91.90;;;;;;5053539;28;20370;-63
2023/10/09 06:34:32;;;;;;;1379.22;999.90;;;35.10;90.50;;;;;;5062009;28;20060;-63
2023/10/09 06:37:07;;;;;;;1319.80;999.90;;;35.10;90.40;;;;;;5067730;28;20046;-63
2023/10/09 06:42:30;;;;;;;1311.68;999.90;;;35.00;91.60;;;;;;5074179;28;20052;-63
2023/10/09 06:44:59;;;;;;;1322.28;999.90;;;35.20;93.10;;;;;;5073961;28;20059;-64
2023/10/09 06:47:26;;;;;;;1354.53;999.90;;;35.20;93.50;;;;;;5074566;28;20056;-64
2023/10/09 06:58:09;;;;;;;1399.30;999.90;;;35.30;94.00;;;;;;5075589;28;20029;-64
2023/10/09 07:03:33;;;;;;;1397.60;999.90;;;35.10;94.10;;;;;;5075673;28;20341;-63
2023/10/09 07:06:23;;;;;;;1397.40;999.90;;;35.10;94.00;;;;;;5075459;28;20020;-64
2023/10/09 07:17:15;;;;;;;1494.55;999.90;;;34.90;94.00;;;;;;5067215;28;20021;-64
2023/10/09 07:24:53;;;;;;;1483.55;999.90;;;34.90;94.00;;;;;;5063178;28;20366;-65
2023/10/09 07:27:43;;;;;;;1476.78;999.90;;;34.90;94.20;;;;;;5063383;28;20178;-63
2023/10/09 07:35:58;;;;;;;1406.15;999.90;;;34.90;94.30;;;;;;5062493;28;20551;-66
2023/10/09 07:38:36;;;;;;;1487.40;999.90;;;35.00;94.00;;;;;;5062713;28;20114;-65
2023/10/09 07:43:39;;;;;;;1497.63;999.90;;;34.90;92.40;;;;;;5064401;28;20023;-65
2023/10/09 07:49:08;;;;;;;1466.22;999.90;;;34.60;94.10;;;;;;5063913;28;20021;-65
2023/10/09 07:51:37;;;;;;;1452.40;999.90;;;34.40;94.50;;;;;;5063364;28;20097;-63
2023/10/09 07:54:15;;;;;;;1412.65;999.90;;;34.50;95.40;;;;;;5062511;28;21236;-66
2023/10/09 07:56:53;;;;;;;1394.45;999.90;;;34.20;94.90;;;;;;5059573;28;20212;-64
2023/10/09 07:59:22;;;;;;;1388.25;999.90;;;34.20;95.70;;;;;;5063611;28;20104;-66
2023/10/09 08:01:52;;;;;;;1389.47;999.90;;;34.30;95.40;;;;;;5062217;28;20033;-64
2023/10/09 08:04:37;;;;;;;1384.75;999.90;;;34.30;95.80;;;;;;5063302;28;20438;-65
2023/10/09 08:07:19;;;;;;;1376.10;999.90;;;34.20;95.60;;;;;;5064142;28;20386;-65
2023/10/09 08:09:46;;;;;;;1373.07;999.90;;;34.00;96.30;;;;;;5073139;28;20033;-63
2023/10/09 08:15:20;;;;;;;1348.50;999.90;;;34.20;96.30;;;;;;5060658;28;20111;-63
2023/10/09 08:18:10;;;;;;;1359.88;999.90;;;34.20;96.20;;;;;;5062635;28;20028;-64
2023/10/09 08:23:48;;;;;;;1333.65;999.90;;;34.20;96.10;;;;;;5063944;28;20028;-64
2023/10/09 08:26:13;;;;;;;1295.10;999.90;;;34.00;96.20;;;;;;5062500;28;20068;-63
2023/10/09 08:28:42;;;;;;;1297.20;999.90;;;33.90;96.60;;;;;;5061828;28;20188;-67
2023/10/09 08:33:58;;;;;;;1318.97;999.90;;;34.10;96.70;;;;;;5063276;28;20044;-67
2023/10/09 08:36:28;;;;;;;1287.95;999.90;;;33.80;96.70;;;;;;5061638;28;20369;-65
2023/10/09 08:38:58;;;;;;;1267.80;999.90;;;33.60;97.90;;;;;;5062166;28;20111;-66
2023/10/09 08:41:29;;;;;;;1301.15;999.90;;;33.20;98.60;;;;;;5063476;28;20027;-66
2023/10/09 08:43:57;;;;;;;1287.47;999.90;;;33.00;98.90;;;;;;5063218;28;20021;-67
2023/10/09 08:46:28;;;;;;;1299.00;999.90;;;32.80;98.70;;;;;;5061571;28;20020;-66
2023/10/09 08:48:58;;;;;;;1343.32;999.90;;;32.60;98.80;;;;;;5062714;28;20067;-64
2023/10/09 08:51:27;;;;;;;1303.45;999.90;;;32.50;98.70;;;;;;5063584;28;20066;-65
2023/10/09 08:53:55;;;;;;;1280.93;999.90;;;32.10;99.70;;;;;;5062301;28;20017;-67
2023/10/09 08:56:22;;;;;;;1289.68;999.90;;;32.10;99.00;;;;;;5066982;28;20021;-65
2023/10/09 08:58:59;;;;;;;1252.97;999.90;;;32.10;99.20;;;;;;5063723;28;20385;-65
2023/10/09 09:01:27;;;;;;;1290.60;999.90;;;31.90;99.30;;;;;;5064147;28;20043;-66
2023/10/09 09:03:56;;;;;;;1354.82;999.90;;;31.80;99.50;;;;;;5062150;28;20485;-65
2023/10/09 09:06:23;;;;;;;1259.40;999.90;;;31.60;99.90;;;;;;5062951;28;20103;-65
2023/10/09 09:11:30;;;;;;;1281.15;999.90;;;31.30;99.90;;;;;;5063660;28;20051;-66
2023/10/09 09:14:12;;;;;;;1284.05;999.90;;;31.30;99.90;;;;;;5062665;28;20013;-66
2023/10/09 09:16:44;;;;;;;;;;;31.30;99.90;;;;;;5061698;28;20021;-66
2023/10/09 09:21:40;;;;;;;1255.85;999.90;;;31.40;99.90;;;;;;5052986;28;20355;-63
2023/10/09 09:27:00;;;;;;;1317.53;999.90;;;31.30;99.90;;;;;;5051942;28;20481;-63
2023/10/09 09:29:37;;;;;;;1333.43;999.90;;;31.10;99.90;;;;;;5052877;28;20046;-63
2023/10/09 09:32:20;;;;;;;1293.28;999.90;;;30.90;99.90;;;;;;5054169;28;20449;-65
2023/10/09 09:34:54;;;;;;;1268.25;999.90;;;30.90;99.90;;;;;;5053885;28;20029;-65
2023/10/09 09:43:11;;;;;;;1267.63;999.90;;;30.60;99.90;;;;;;5071169;28;20059;-65
2023/10/09 09:45:46;;;;;;;1353.28;999.90;;;30.40;99.90;;;;;;5073219;28;20432;-65
2023/10/09 09:48:15;;;;;;;1369.25;999.90;;;30.50;99.90;;;;;;5072947;28;20394;-65
2023/10/09 09:50:44;;;;;;;1370.32;999.90;;;30.80;99.90;;;;;;5075809;28;20029;-65
2023/10/09 09:53:16;;;;;;;1375.88;999.90;;;31.00;99.90;;;;;;5077035;28;20028;-66
2023/10/09 09:55:55;;;;;;;;;;;31.00;99.90;;;;;;5077263;28;20021;-66
2023/10/09 09:58:24;;;;;;;1351.75;999.90;;;30.80;99.90;;;;;;5076780;28;19913;-67
2023/10/09 10:00:55;;;;;;;1368.90;999.90;;;31.00;99.90;;;;;;5076866;28;20056;-66
2023/10/09 10:03:33;;;;;;;1355.63;999.90;;;31.00;99.90;;;;;;5076598;28;20036;-66
2023/10/09 10:06:05;;;;;;;1353.82;999.90;;;31.00;99.90;;;;;;5076708;28;20029;-66
2023/10/09 10:08:32;;;;;;;1352.47;999.90;;;31.00;99.90;;;;;;5076821;28;20393;-66
2023/10/09 10:11:04;;;;;;;1362.80;999.90;;;31.00;99.90;;;;;;5076607;28;20577;-66
2023/10/09 10:13:51;;;;;;;1352.28;999.90;;;31.00;99.90;;;;;;5076726;28;20031;-67
2023/10/09 10:19:21;;;;;;;1356.13;999.90;;;31.00;99.90;;;;;;5067671;28;20484;-66
2023/10/09 10:21:48;;;;;;;1352.47;999.90;;;30.90;99.90;;;;;;5076157;28;20028;-67
2023/10/09 10:24:51;;;;;;;1367.28;999.90;;;31.00;99.90;;;;;;5076643;28;20024;-67
2023/10/09 10:27:27;;;;;;;1328.85;999.90;;;30.90;99.90;;;;;;5076249;28;20131;-65
2023/10/09 10:30:34;;;;;;;1370.13;999.90;;;30.70;99.90;;;;;;5077137;28;20081;-66
2023/10/09 10:33:15;;;;;;;1325.15;999.90;;;30.70;99.90;;;;;;5076001;28;20420;-66
2023/10/09 10:38:36;;;;;;;1326.05;999.90;;;30.70;99.90;;;;;;5075018;28;20032;-66
2023/10/09 10:41:22;;;;;;;1363.03;999.90;;;30.70;99.90;;;;;;5075179;28;20029;-66
2023/10/09 10:48:59;;;;;;;1364.95;999.90;;;30.60;99.90;;;;;;5065440;28;20297;-67
2023/10/09 10:51:37;;;;;;;1355.15;999.90;;;30.70;99.90;;;;;;5054786;28;20033;-67
2023/10/09 10:56:52;;;;;;;1342.43;999.90;;;30.50;99.90;;;;;;5054843;28;20032;-67
2023/10/09 10:59:28;;;;;;;1359.35;999.90;;;30.50;99.90;;;;;;5054672;28;20021;-67
2023/10/09 11:04:27;;;;;;;1344.50;999.90;;;30.50;99.90;;;;;;5054571;28;20029;-67
2023/10/09 11:07:09;;;;;;;1361.43;999.90;;;30.40;99.90;;;;;;5054544;28;20025;-67
2023/10/09 11:13:29;;;;;;;1318.95;999.90;;;30.50;99.90;;;;;;5054452;28;20000;-67
2023/10/09 11:26:21;;;;;;;1363.13;999.90;;;30.30;99.90;;;;;;5054343;28;20079;-65
2023/10/09 11:29:13;;;;;;;1374.53;999.90;;;30.30;99.90;;;;;;5053843;28;20409;-65
2023/10/09 11:31:33;;;;;;;1372.40;999.90;;;30.30;99.90;;;;;;5053968;28;20028;-65
2023/10/09 11:34:01;;;;;;;1367.70;999.90;;;30.30;99.90;;;;;;5054036;28;20466;-65
2023/10/09 11:36:38;;;;;;;1349.88;999.90;;;30.30;99.90;;;;;;5054064;28;20123;-64
2023/10/09 11:39:31;;;;;;;1366.97;999.90;;;30.30;99.90;;;;;;5054120;28;20025;-64
2023/10/09 11:42:08;;;;;;;;;;;30.40;99.90;;;;;;5054493;28;20478;-64
2023/10/09 11:44:40;;;;;;;1371.93;999.90;;;30.30;99.90;;;;;;5053942;28;19909;-63
2023/10/09 11:50:11;;;;;;;1195.10;999.90;;;30.20;99.90;;;;;;5053657;28;20021;-66
2023/10/09 11:53:09;;;;;;;1195.22;999.90;;;30.20;99.90;;;;;;5053822;28;20032;-65
2023/10/09 11:55:37;;;;;;;1110.15;998.95;;;30.10;99.90;;;;;;5053603;28;20505;-66
2023/10/09 11:58:06;;;;;;;1125.70;999.90;;;30.10;99.90;;;;;;5053474;28;20041;-67
2023/10/09 12:00:44;;;;;;;1062.47;951.30;;;30.30;99.90;;;;;;5064001;28;20032;-66
2023/10/09 12:03:11;;;;;;;1031.35;928.80;;;30.10;99.90;;;;;;5053561;28;20047;-68
2023/10/09 12:05:42;;;;;;;1013.38;912.28;;;30.30;99.90;;;;;;5053494;28;20039;-65
2023/10/09 12:08:09;;;;;;;1017.33;915.95;;;30.30;99.90;;;;;;5053425;28;20503;-65
2023/10/09 12:10:38;;;;;;;1045.97;943.67;;;30.30;99.90;;;;;;5053481;28;20025;-65
2023/10/09 12:13:07;;;;;;;1016.08;914.33;;;30.30;99.90;;;;;;5052477;28;20025;-64
2023/10/09 12:15:46;;;;;;;1016.22;914.88;;;30.30;99.90;;;;;;5053292;28;20028;-65
2023/10/09 12:18:15;;;;;;;1048.60;944.97;;;30.30;99.90;;;;;;5053159;28;20041;-65
2023/10/09 12:20:47;;;;;;;995.45;897.17;;;30.20;99.90;;;;;;5053252;28;20032;-65
2023/10/09 12:23:14;;;;;;;1004.35;904.72;;;30.20;99.90;;;;;;5063025;28;20029;-65
2023/10/09 12:25:44;;;;;;;1010.88;909.72;;;30.30;99.90;;;;;;5073362;28;20481;-63
2023/10/09 12:28:12;;;;;;;1054.53;948.83;;;30.30;99.90;;;;;;5072756;28;20128;-64
2023/10/09 12:30:40;;;;;;;1025.65;923.35;;;30.20;99.90;;;;;;5061363;28;20053;-64
2023/10/09 12:33:08;;;;;;;1056.05;951.33;;;30.20;99.90;;;;;;5072234;28;20067;-64
2023/10/09 12:35:41;;;;;;;1075.38;968.65;;;30.20;99.90;;;;;;5072795;28;20111;-64
2023/10/09 12:38:09;;;;;;;1099.30;988.92;;;30.20;99.90;;;;;;5073031;28;20063;-63
2023/10/09 12:40:39;;;;;;;1176.57;999.90;;;30.20;99.90;;;;;;5072787;28;20492;-64
2023/10/09 12:43:15;;;;;;;1117.18;999.90;;;30.20;99.90;;;;;;5072767;28;20036;-64
2023/10/09 12:45:42;;;;;;;1086.50;978.33;;;30.30;99.90;;;;;;5072989;28;20451;-65
2023/10/09 12:48:09;;;;;;;1131.68;999.90;;;30.30;99.90;;;;;;5072635;28;20028;-62
2023/10/09 12:50:45;;;;;;;1098.22;987.75;;;30.20;99.90;;;;;;5072635;28;20081;-63
2023/10/09 12:53:17;;;;;;;1122.55;999.90;;;30.20;99.90;;;;;;5072821;28;20047;-64
2023/10/09 12:55:44;;;;;;;1361.15;999.90;;;30.20;99.90;;;;;;5073000;28;20024;-63
2023/10/09 12:58:15;;;;;;;1348.00;999.90;;;30.10;99.90;;;;;;5072489;28;20047;-63
2023/10/09 13:00:44;;;;;;;1356.70;999.90;;;30.10;99.90;;;;;;5072871;28;20051;-62
2023/10/09 13:03:28;;;;;;;1362.65;999.90;;;30.10;99.90;;;;;;5072715;28;20114;-62
2023/10/09 13:05:55;;;;;;;1353.68;999.90;;;30.10;99.90;;;;;;5073159;28;20090;-61
2023/10/09 13:08:23;;;;;;;1369.82;999.90;;;30.20;99.90;;;;;;5072872;28;20427;-63
2023/10/09 13:13:43;;;;;;;1333.28;999.90;;;30.30;99.90;;;;;;5072504;28;20363;-64
2023/10/09 13:16:12;;;;;;;1340.70;999.90;;;30.20;99.90;;;;;;5072355;28;20024;-62
2023/10/09 13:18:42;;;;;;;1336.82;999.90;;;30.20;99.90;;;;;;5070318;28;20068;-62
2023/10/09 13:21:09;;;;;;;1341.85;999.90;;;30.10;99.90;;;;;;5062888;28;20036;-64
2023/10/09 13:23:46;;;;;;;1335.05;999.90;;;30.10;99.90;;;;;;5062075;28;20036;-63
2023/10/09 13:26:25;;;;;;;1332.18;999.90;;;30.00;99.90;;;;;;5052963;28;20033;-63
2023/10/09 13:28:54;;;;;;;1356.88;999.90;;;30.00;99.90;;;;;;5063448;28;20581;-67
2023/10/09 13:31:25;;;;;;;1353.53;999.90;;;29.80;99.90;;;;;;5059276;28;20100;-62
2023/10/09 13:33:55;;;;;;;1340.28;999.90;;;29.90;99.90;;;;;;5063472;28;20025;-63
2023/10/09 13:36:31;;;;;;;1293.90;999.90;;;29.70;99.90;;;;;;5062920;28;20031;-64
2023/10/09 13:41:48;;;;;;;1339.50;999.90;;;29.70;99.90;;;;;;5060962;28;20535;-65
2023/10/09 13:44:15;;;;;;;1340.78;999.90;;;29.80;99.90;;;;;;5052104;28;20478;-65
2023/10/09 13:46:42;;;;;;;1331.10;999.90;;;29.70;99.90;;;;;;5051997;28;20029;-65
2023/10/09 13:49:13;;;;;;;1319.03;999.90;;;29.70;99.90;;;;;;5051832;28;20037;-65
2023/10/09 13:51:44;;;;;;;1308.72;999.90;;;29.80;99.90;;;;;;5051954;28;20025;-65
2023/10/09 13:54:20;;;;;;;1308.60;999.90;;;29.80;99.90;;;;;;5051926;28;20481;-65
2023/10/09 13:56:52;;;;;;;1300.72;999.90;;;29.80;99.90;;;;;;5051914;28;20029;-65
2023/10/09 13:59:22;;;;;;;;;;;29.80;99.90;;;;;;5052005;28;20049;-64
2023/10/09 14:01:49;;;;;;;1292.15;999.90;;;29.80;99.90;;;;;;5060283;28;20399;-65
2023/10/09 14:04:19;;;;;;;1286.95;999.90;;;29.80;99.90;;;;;;5061410;28;20028;-66
2023/10/09 14:06:47;;;;;;;1321.30;999.90;;;29.70;99.90;;;;;;5062490;28;20034;-65
2023/10/09 14:12:10;;;;;;;1329.65;999.90;;;29.70;99.90;;;;;;5061747;28;20035;-65
2023/10/09 14:14:40;;;;;;;1319.65;999.90;;;29.70;99.90;;;;;;5062604;28;20052;-65
2023/10/09 14:17:23;;;;;;;1325.85;999.90;;;29.70;99.90;;;;;;5055719;28;20075;-65
2023/10/09 14:19:53;;;;;;;1316.88;999.90;;;29.70;99.90;;;;;;5052575;28;20029;-65
2023/10/09 14:22:24;;;;;;;1327.55;999.90;;;29.70;99.90;;;;;;5064434;28;20081;-64
2023/10/09 14:25:01;;;;;;;1320.60;999.90;;;29.70;99.90;;;;;;5072841;28;20033;-65
2023/10/09 14:27:29;;;;;;;1250.57;999.90;;;29.70;99.90;;;;;;5072748;28;20028;-66
2023/10/09 14:30:01;;;;;;;1278.47;999.90;;;29.70;99.90;;;;;;5072955;28;20116;-65
2023/10/09 14:32:33;;;;;;;1268.50;999.90;;;29.60;99.90;;;;;;5053681;28;20490;-65
2023/10/09 14:35:01;;;;;;;1289.00;999.90;;;29.70;99.90;;;;;;5052672;28;20299;-65
2023/10/09 14:37:28;;;;;;;1282.07;999.90;;;29.70;99.90;;;;;;5056362;28;20033;-65
2023/10/09 14:39:58;;;;;;;1255.70;999.90;;;29.70;99.90;;;;;;5056309;28;20159;-65
2023/10/09 14:42:27;;;;;;;1277.53;999.90;;;29.70;99.90;;;;;;5056269;28;20112;-64
2023/10/09 14:44:55;;;;;;;1297.35;999.90;;;29.70;99.90;;;;;;5056631;28;20108;-65
2023/10/09 14:47:22;;;;;;;1293.28;999.90;;;29.70;99.90;;;;;;5056468;28;20025;-65
2023/10/09 14:49:49;;;;;;;1323.00;999.90;;;29.60;99.90;;;;;;5056402;28;20107;-65
2023/10/09 14:52:16;;;;;;;1336.95;999.90;;;29.60;99.90;;;;;;5056466;28;20021;-65
2023/10/09 14:54:44;;;;;;;1333.18;999.90;;;29.60;99.90;;;;;;5056104;28;20398;-65
2023/10/09 14:57:14;;;;;;;1363.32;999.90;;;29.60;99.90;;;;;;5069193;28;20027;-64
2023/10/09 14:59:43;;;;;;;1338.00;999.90;;;29.60;99.90;;;;;;5069285;28;20515;-65
2023/10/09 15:02:09;;;;;;;1342.57;999.90;;;29.60;99.90;;;;;;5066896;28;20025;-64
2023/10/09 15:04:36;;;;;;;1364.18;999.90;;;29.70;99.90;;;;;;5063202;28;20365;-67
2023/10/09 15:07:07;;;;;;;1346.85;999.90;;;29.60;99.90;;;;;;5067561;28;20052;-64
2023/10/09 15:09:36;;;;;;;1353.45;999.90;;;29.60;99.90;;;;;;5064612;28;20021;-64
2023/10/09 15:12:06;;;;;;;1367.22;999.90;;;29.60;99.90;;;;;;5066058;28;20063;-63
2023/10/09 15:14:33;;;;;;;1355.90;999.90;;;29.60;99.90;;;;;;5066672;28;20024;-65
2023/10/09 15:17:00;;;;;;;1392.82;999.90;;;29.60;99.90;;;;;;5064773;28;20017;-64
2023/10/09 15:19:29;;;;;;;1389.15;999.90;;;29.60;99.90;;;;;;5065135;28;20028;-64
2023/10/09 15:22:00;;;;;;;1344.22;999.90;;;29.60;99.90;;;;;;5064748;28;20029;-64
2023/10/09 15:24:27;;;;;;;1345.65;999.90;;;29.60;99.90;;;;;;5066576;28;20033;-65
2023/10/09 15:26:58;;;;;;;1335.63;999.90;;;29.60;99.90;;;;;;5064960;28;20021;-65
2023/10/09 15:29:28;;;;;;;1343.65;999.90;;;29.60;99.90;;;;;;5065193;28;20075;-64
2023/10/09 15:31:56;;;;;;;1348.07;999.90;;;29.50;99.90;;;;;;5065483;28;20365;-66
2023/10/09 15:34:24;;;;;;;1326.03;999.90;;;29.40;99.90;;;;;;5064866;28;20150;-63
2023/10/09 15:36:53;;;;;;;1337.75;999.90;;;29.30;99.90;;;;;;5066516;28;20461;-64